Time;durP1;ratioP1;P1;durP2;ratioP2;P2;SDS_P1;SDS_P2;PMS_P1;PMS_P2;Temp;Humidity;BMP_temperature;BMP_pressure;BME280_temperature;BME280_humidity;BME280_pressure;Samples;Min_cycle;Max_cycle;Signal;HPM_P1;HPM_P2
2021/06/09 00:00:42;;;;;;;21.73;15.63;;;16.90;99.90;;;;;;5116952;28;20331;-74
2021/06/09 00:03:08;;;;;;;22.83;17.07;;;16.90;99.90;;;;;;5116599;28;20662;-75
2021/06/09 00:05:35;;;;;;;22.10;16.10;;;16.90;99.90;;;;;;5116479;28;20218;-75
2021/06/09 00:08:01;;;;;;;26.03;17.77;;;16.90;99.90;;;;;;5125910;27;20599;-74
2021/06/09 00:10:28;;;;;;;28.27;17.83;;;17.00;99.90;;;;;;5136686;27;20379;-75
2021/06/09 00:12:55;;;;;;;24.10;18.10;;;16.90;99.90;;;;;;5136706;27;20211;-75
2021/06/09 00:15:22;;;;;;;25.63;18.33;;;16.70;99.90;;;;;;5136866;27;20194;-75
2021/06/09 00:17:48;;;;;;;29.53;20.80;;;16.70;99.90;;;;;;5136875;27;20316;-75
2021/06/09 00:20:18;;;;;;;27.23;18.47;;;16.70;99.90;;;;;;5136527;27;20328;-75
2021/06/09 00:22:45;;;;;;;25.50;18.33;;;16.70;99.90;;;;;;5137350;27;20544;-76
2021/06/09 00:25:16;;;;;;;27.73;19.73;;;16.70;99.90;;;;;;5136533;27;20297;-75
2021/06/09 00:27:43;;;;;;;29.63;19.67;;;16.70;99.90;;;;;;5136918;27;20200;-74
2021/06/09 00:30:16;;;;;;;28.27;19.97;;;16.70;99.90;;;;;;5116529;27;20732;-75
2021/06/09 00:32:42;;;;;;;30.03;19.17;;;16.70;99.90;;;;;;5115375;27;20300;-74
2021/06/09 00:35:10;;;;;;;27.10;18.20;;;16.70;99.90;;;;;;5136807;27;20213;-75
2021/06/09 00:37:36;;;;;;;26.90;18.57;;;16.70;99.90;;;;;;5135967;27;20217;-75
2021/06/09 00:40:03;;;;;;;25.10;18.40;;;16.70;99.90;;;;;;5136348;27;20193;-75
2021/06/09 00:42:30;;;;;;;24.47;18.47;;;16.60;99.90;;;;;;5136422;27;20338;-75
2021/06/09 00:44:56;;;;;;;28.57;19.17;;;16.60;99.90;;;;;;5136424;27;20222;-75
2021/06/09 00:47:25;;;;;;;27.60;19.73;;;16.60;99.90;;;;;;5136319;27;20603;-75
2021/06/09 00:49:52;;;;;;;27.47;19.80;;;16.70;99.90;;;;;;5136420;27;20296;-73
2021/06/09 00:52:23;;;;;;;28.37;20.23;;;16.60;99.90;;;;;;5135992;27;20272;-75
2021/06/09 00:54:50;;;;;;;31.10;20.63;;;16.60;99.90;;;;;;5109068;27;20205;-75
2021/06/09 00:57:17;;;;;;;30.13;20.40;;;16.50;99.90;;;;;;5136131;27;20377;-75
2021/06/09 00:59:44;;;;;;;31.33;21.57;;;16.50;99.90;;;;;;5121341;27;20193;-76
2021/06/09 01:02:10;;;;;;;29.60;21.13;;;16.50;99.90;;;;;;5136018;27;20284;-75
2021/06/09 01:04:38;;;;;;;30.90;20.40;;;16.50;99.90;;;;;;5135975;27;20651;-76
2021/06/09 01:07:05;;;;;;;29.73;21.83;;;16.40;99.90;;;;;;5136117;27;20298;-75
2021/06/09 01:09:32;;;;;;;33.47;22.77;;;16.40;99.90;;;;;;5135428;27;20288;-75
2021/06/09 01:11:58;;;;;;;34.47;21.30;;;16.40;99.90;;;;;;5135760;27;20330;-76
2021/06/09 01:14:25;;;;;;;32.93;22.50;;;16.40;99.90;;;;;;5135905;27;20194;-75
2021/06/09 01:16:52;;;;;;;29.47;21.37;;;16.40;99.90;;;;;;5135271;27;20224;-74
2021/06/09 01:19:20;;;;;;;32.37;21.87;;;16.40;99.90;;;;;;5135325;27;20669;-74
2021/06/09 01:21:48;;;;;;;37.17;22.97;;;16.40;99.90;;;;;;5135495;27;20297;-76
2021/06/09 01:24:15;;;;;;;34.13;21.90;;;16.30;99.90;;;;;;5135455;27;20218;-75
2021/06/09 01:26:42;;;;;;;33.93;22.90;;;16.20;99.90;;;;;;5135365;27;20288;-74
2021/06/09 01:29:09;;;;;;;31.90;23.03;;;16.20;99.90;;;;;;5135461;27;20205;-75
2021/06/09 01:31:36;;;;;;;36.10;23.83;;;16.20;99.90;;;;;;5130967;27;20277;-74
2021/06/09 01:34:06;;;;;;;37.10;23.87;;;16.10;99.90;;;;;;5135398;27;20194;-75
2021/06/09 01:36:35;;;;;;;37.37;25.20;;;16.20;99.90;;;;;;5135564;27;20237;-75
2021/06/09 01:39:08;;;;;;;37.93;25.57;;;16.20;99.90;;;;;;5135314;27;20276;-74
2021/06/09 01:41:34;;;;;;;42.40;27.53;;;16.20;99.90;;;;;;5135099;27;20281;-76
2021/06/09 01:44:01;;;;;;;40.37;26.63;;;16.10;99.90;;;;;;5134687;27;20703;-75
2021/06/09 01:46:27;;;;;;;47.50;28.27;;;16.10;99.90;;;;;;5134954;27;20293;-75
2021/06/09 01:48:54;;;;;;;45.23;28.77;;;16.10;99.90;;;;;;5134812;27;22298;-74
2021/06/09 01:51:21;;;;;;;45.53;29.33;;;16.10;99.90;;;;;;5134605;27;20722;-76
2021/06/09 01:53:48;;;;;;;49.50;30.47;;;16.00;99.90;;;;;;5134687;27;20246;-75
2021/06/09 01:56:16;;;;;;;45.97;31.67;;;16.00;99.90;;;;;;5134665;27;20221;-74
2021/06/09 01:58:43;;;;;;;50.53;32.33;;;16.00;99.90;;;;;;5134225;27;20224;-74
2021/06/09 02:01:11;;;;;;;52.93;33.87;;;16.00;99.90;;;;;;5134739;27;20287;-75
2021/06/09 02:03:38;;;;;;;54.97;33.60;;;16.00;99.90;;;;;;5134935;27;20246;-75
2021/06/09 02:06:04;;;;;;;59.13;35.80;;;16.00;99.90;;;;;;5134608;27;20246;-75
2021/06/09 02:08:31;;;;;;;58.83;34.87;;;16.00;99.90;;;;;;5134730;27;20276;-75
2021/06/09 02:10:58;;;;;;;56.87;35.83;;;15.90;99.90;;;;;;5134369;27;20718;-75
2021/06/09 02:13:26;;;;;;;58.07;36.77;;;15.80;99.90;;;;;;5134748;27;20200;-75
2021/06/09 02:15:56;;;;;;;61.60;37.40;;;15.80;99.90;;;;;;5134768;27;20193;-75
2021/06/09 02:18:23;;;;;;;63.70;38.97;;;15.90;99.90;;;;;;5134445;27;20242;-74
2021/06/09 02:20:51;;;;;;;66.20;39.20;;;15.80;99.90;;;;;;5134376;27;20204;-76
2021/06/09 02:23:20;;;;;;;65.47;40.20;;;15.80;99.90;;;;;;5134361;27;20303;-75
2021/06/09 02:25:49;;;;;;;64.83;40.13;;;15.80;99.90;;;;;;5134485;27;20236;-74
2021/06/09 02:28:16;;;;;;;70.93;41.57;;;15.80;99.90;;;;;;5133955;27;20292;-75
2021/06/09 02:30:45;;;;;;;68.03;42.23;;;15.80;99.90;;;;;;5129627;27;20280;-74
2021/06/09 02:33:13;;;;;;;68.70;41.17;;;15.80;99.90;;;;;;5134384;27;20276;-75
2021/06/09 02:35:41;;;;;;;68.03;40.33;;;15.90;99.90;;;;;;5134107;27;20586;-76
2021/06/09 02:38:09;;;;;;;70.37;42.60;;;15.80;99.90;;;;;;5134025;27;20217;-74
2021/06/09 02:40:37;;;;;;;68.63;42.87;;;15.80;99.90;;;;;;5133990;27;20285;-74
2021/06/09 02:43:04;;;;;;;73.23;43.63;;;15.70;99.90;;;;;;5134286;27;20289;-75
2021/06/09 02:45:31;;;;;;;73.20;43.37;;;15.80;99.90;;;;;;5133679;27;20233;-76
2021/06/09 02:48:01;;;;;;;70.57;43.80;;;15.70;99.90;;;;;;5133953;27;20221;-75
2021/06/09 02:50:28;;;;;;;75.50;42.90;;;15.70;99.90;;;;;;5134042;27;20193;-75
2021/06/09 02:53:03;;;;;;;73.20;43.97;;;15.70;99.90;;;;;;5133764;27;20579;-74
2021/06/09 02:55:39;;;;;;;74.37;44.33;;;15.70;99.90;;;;;;5133785;27;20295;-75
2021/06/09 02:58:12;;;;;;;73.77;43.87;;;15.60;99.90;;;;;;5134001;27;20205;-74
2021/06/09 03:00:50;;;;;;;73.80;44.57;;;15.60;99.90;;;;;;5133901;27;20525;-76
2021/06/09 03:03:22;;;;;;;80.80;46.20;;;15.50;99.90;;;;;;5134130;27;20190;-74
2021/06/09 03:05:57;;;;;;;72.20;43.70;;;15.50;99.90;;;;;;5133746;27;20316;-74
2021/06/09 03:08:31;;;;;;;79.60;44.90;;;15.50;99.90;;;;;;5133924;27;20195;-75
2021/06/09 03:11:01;;;;;;;79.33;46.53;;;15.40;99.90;;;;;;5132937;27;20303;-75
2021/06/09 03:13:51;;;;;;;88.03;50.07;;;15.40;99.90;;;;;;5133816;27;20195;-74
2021/06/09 03:16:22;;;;;;;91.73;50.67;;;15.30;99.90;;;;;;5130087;28;20192;-76
2021/06/09 03:18:52;;;;;;;88.60;50.40;;;15.30;99.90;;;;;;5133603;28;20288;-75
2021/06/09 03:21:22;;;;;;;88.90;51.43;;;15.40;99.90;;;;;;5133696;28;20247;-75
2021/06/09 03:24:02;;;;;;;92.77;53.07;;;15.40;99.90;;;;;;5133673;28;20197;-74
2021/06/09 03:26:38;;;;;;;91.43;52.33;;;15.40;99.90;;;;;;5132667;28;20545;-76
2021/06/09 03:29:10;;;;;;;97.47;54.40;;;15.40;99.90;;;;;;5133218;28;20193;-74
2021/06/09 03:31:40;;;;;;;100.43;55.67;;;15.40;99.90;;;;;;5108580;28;20199;-75
2021/06/09 03:34:13;;;;;;;100.37;55.43;;;15.40;99.90;;;;;;5125381;28;20217;-75
2021/06/09 03:36:42;;;;;;;105.67;57.03;;;15.40;99.90;;;;;;5103072;28;20305;-74
2021/06/09 03:39:12;;;;;;;104.60;56.90;;;15.50;99.90;;;;;;5128073;28;20221;-74
2021/06/09 03:41:41;;;;;;;104.37;57.93;;;15.50;99.90;;;;;;5124807;28;20194;-76
2021/06/09 03:44:10;;;;;;;100.80;55.77;;;15.50;99.90;;;;;;5111946;28;20280;-75
2021/06/09 03:46:38;;;;;;;101.87;58.53;;;15.50;99.90;;;;;;5119787;28;20198;-75
2021/06/09 03:49:12;;;;;;;108.17;59.83;;;15.60;99.90;;;;;;5125570;28;20239;-73
2021/06/09 03:51:40;;;;;;;104.53;57.60;;;15.50;99.90;;;;;;5115500;28;20203;-75
2021/06/09 03:54:08;;;;;;;94.30;57.03;;;15.60;99.90;;;;;;5097097;28;20186;-75
2021/06/09 03:56:35;;;;;;;96.90;54.57;;;15.80;99.90;;;;;;5096728;28;20801;-75
2021/06/09 03:59:04;;;;;;;97.87;57.37;;;15.90;99.90;;;;;;5102107;28;20598;-74
2021/06/09 04:01:32;;;;;;;91.63;54.50;;;15.90;99.90;;;;;;5096085;28;20290;-75
2021/06/09 04:04:01;;;;;;;91.80;54.57;;;16.00;99.90;;;;;;5098196;28;20645;-74
2021/06/09 04:06:31;;;;;;;86.30;51.97;;;16.00;99.90;;;;;;5093202;28;20216;-73
2021/06/09 04:08:59;;;;;;;89.13;53.27;;;16.20;99.90;;;;;;5094907;28;20197;-75
2021/06/09 04:11:28;;;;;;;84.97;51.07;;;16.20;99.90;;;;;;5100742;28;20642;-75
2021/06/09 04:13:56;;;;;;;83.33;52.07;;;16.30;99.90;;;;;;5097479;28;20278;-73
2021/06/09 04:16:25;;;;;;;90.40;53.00;;;16.50;99.90;;;;;;5097391;28;20588;-75
2021/06/09 04:18:54;;;;;;;79.80;50.40;;;16.70;99.90;;;;;;5092211;28;20281;-75
2021/06/09 04:21:21;;;;;;;79.27;50.87;;;16.70;99.90;;;;;;5101727;27;20281;-75
2021/06/09 04:23:49;;;;;;;77.00;50.00;;;16.60;99.90;;;;;;5099461;27;20205;-74
2021/06/09 04:26:17;;;;;;;80.77;50.23;;;16.80;99.90;;;;;;5098959;27;20214;-75
2021/06/09 04:28:45;;;;;;;82.10;50.47;;;17.00;99.90;;;;;;5103463;27;20671;-75
2021/06/09 04:31:13;;;;;;;77.47;51.13;;;16.90;99.90;;;;;;5102082;27;20199;-74
2021/06/09 04:33:40;;;;;;;77.13;48.87;;;17.00;99.90;;;;;;5096969;27;20193;-76
2021/06/09 04:36:12;;;;;;;70.13;48.23;;;17.10;99.90;;;;;;5097569;27;20286;-75
2021/06/09 04:38:38;;;;;;;72.30;47.90;;;17.30;99.90;;;;;;5104890;27;20726;-75
2021/06/09 04:41:07;;;;;;;69.10;46.20;;;17.50;99.90;;;;;;5099371;27;20613;-74
2021/06/09 04:43:33;;;;;;;71.27;47.67;;;17.60;99.90;;;;;;5099344;27;20226;-74
2021/06/09 04:46:00;;;;;;;70.13;46.83;;;17.80;99.90;;;;;;5101293;27;20194;-75
2021/06/09 04:48:27;;;;;;;68.13;45.70;;;18.00;99.90;;;;;;5096523;27;20229;-75
2021/06/09 04:50:55;;;;;;;68.43;45.63;;;18.10;99.90;;;;;;5096811;27;20279;-74
2021/06/09 04:53:22;;;;;;;67.27;46.17;;;18.30;99.90;;;;;;5094852;27;20195;-73
2021/06/09 04:55:50;;;;;;;65.90;45.80;;;18.60;99.90;;;;;;5104483;27;20284;-74
2021/06/09 04:58:20;;;;;;;67.40;45.53;;;19.00;99.90;;;;;;5101583;27;20245;-74
2021/06/09 05:00:47;;;;;;;63.00;43.13;;;19.30;99.90;;;;;;5106279;27;20289;-74
2021/06/09 05:03:14;;;;;;;60.50;44.47;;;19.70;99.90;;;;;;5099451;27;20187;-74
2021/06/09 05:05:41;;;;;;;65.67;45.63;;;20.20;99.90;;;;;;5108573;27;20194;-75
2021/06/09 05:08:08;;;;;;;61.43;44.03;;;20.70;99.90;;;;;;5098325;27;20278;-75
2021/06/09 05:10:36;;;;;;;59.43;41.90;;;21.10;99.90;;;;;;5095223;28;20234;-75
2021/06/09 05:13:07;;;;;;;58.30;43.35;;;21.40;99.90;;;;;;5097562;27;20195;-75
2021/06/09 05:15:39;;;;;;;55.00;42.83;;;21.60;99.90;;;;;;5107736;27;20225;-76
2021/06/09 05:18:09;;;;;;;58.85;43.95;;;21.50;99.90;;;;;;5111081;27;20210;-74
2021/06/09 05:20:39;;;;;;;59.13;42.80;;;21.60;99.90;;;;;;5099264;27;20573;-74
2021/06/09 05:23:09;;;;;;;54.97;41.88;;;21.60;99.90;;;;;;5100881;27;20674;-74
2021/06/09 05:25:37;;;;;;;61.53;42.88;;;21.60;99.90;;;;;;5106338;28;20195;-74
2021/06/09 05:28:07;;;;;;;58.55;43.10;;;21.80;99.90;;;;;;5097762;28;20590;-75
2021/06/09 05:30:37;;;;;;;63.40;42.90;;;22.00;99.90;;;;;;5106333;27;20293;-75
2021/06/09 05:33:04;;;;;;;59.63;43.65;;;22.30;99.90;;;;;;5098205;28;20305;-74
2021/06/09 05:35:31;;;;;;;59.97;42.40;;;22.90;99.90;;;;;;5104056;27;20195;-74
2021/06/09 05:38:00;;;;;;;54.45;41.10;;;23.30;99.90;;;;;;5096948;28;20600;-75
2021/06/09 05:40:27;;;;;;;52.58;38.70;;;23.90;99.90;;;;;;5102428;27;20341;-76
2021/06/09 05:42:54;;;;;;;50.25;38.80;;;24.30;99.90;;;;;;5102945;27;20226;-75
2021/06/09 05:45:27;;;;;;;50.30;37.85;;;24.50;99.90;;;;;;5101769;27;20195;-74
2021/06/09 05:47:55;;;;;;;52.05;36.38;;;24.50;99.90;;;;;;5097929;27;20218;-74
2021/06/09 05:50:24;;;;;;;48.78;37.88;;;24.70;99.90;;;;;;5093721;27;20337;-74
2021/06/09 05:52:52;;;;;;;47.70;36.28;;;25.10;99.90;;;;;;5100987;27;20281;-75
2021/06/09 05:55:22;;;;;;;47.50;35.22;;;25.50;99.90;;;;;;5116750;27;20709;-74
2021/06/09 05:57:49;;;;;;;42.10;35.00;;;25.50;99.90;;;;;;5105871;28;20217;-75
2021/06/09 06:00:19;;;;;;;44.13;35.13;;;25.60;99.90;;;;;;5104346;28;20373;-74
2021/06/09 06:02:46;;;;;;;43.60;35.08;;;25.90;99.90;;;;;;5102034;28;20345;-75
2021/06/09 06:05:14;;;;;;;47.88;35.67;;;26.60;99.90;;;;;;5096613;28;20293;-74
2021/06/09 06:07:40;;;;;;;44.20;35.38;;;26.50;99.90;;;;;;5105557;28;20196;-75
2021/06/09 06:10:09;;;;;;;42.58;33.83;;;26.50;99.90;;;;;;5090450;28;20618;-75
2021/06/09 06:12:36;;;;;;;40.55;33.78;;;27.00;99.90;;;;;;5101039;28;20281;-74
2021/06/09 06:15:05;;;;;;;38.55;33.10;;;27.70;99.90;;;;;;5104067;28;20212;-75
2021/06/09 06:17:31;;;;;;;42.38;31.55;;;27.60;99.90;;;;;;5110083;28;20297;-74
2021/06/09 06:19:58;;;;;;;35.22;29.40;;;28.40;99.90;;;;;;5108350;28;20600;-75
2021/06/09 06:22:29;;;;;;;34.25;26.70;;;28.70;99.90;;;;;;5107208;28;20666;-75
2021/06/09 06:24:57;;;;;;;34.05;26.00;;;28.70;99.90;;;;;;5091721;28;20229;-76
2021/06/09 06:27:25;;;;;;;28.17;24.77;;;29.20;99.90;;;;;;5105142;28;20241;-73
2021/06/09 06:29:51;;;;;;;27.60;22.35;;;30.00;99.90;;;;;;5094925;28;20625;-76
2021/06/09 06:32:20;;;;;;;28.80;23.55;;;30.30;99.90;;;;;;5092777;28;20658;-76
2021/06/09 06:34:49;;;;;;;24.63;22.02;;;30.40;99.90;;;;;;5100566;28;20201;-76
2021/06/09 06:37:17;;;;;;;28.08;21.90;;;31.10;99.90;;;;;;5113075;28;20575;-76
2021/06/09 06:39:45;;;;;;;24.33;19.45;;;31.80;99.90;;;;;;5112673;28;20331;-76
2021/06/09 06:42:12;;;;;;;20.60;17.88;;;31.90;99.90;;;;;;5112786;28;20221;-76
2021/06/09 06:44:40;;;;;;;23.40;16.98;;;32.60;99.90;;;;;;5112399;28;20201;-76
2021/06/09 06:47:08;;;;;;;19.27;16.63;;;33.10;99.90;;;;;;5112479;28;20197;-76
2021/06/09 06:49:36;;;;;;;20.17;16.08;;;33.70;99.90;;;;;;5096307;28;20209;-76
2021/06/09 06:52:04;;;;;;;16.73;14.23;;;32.30;99.90;;;;;;5103800;28;20201;-75
2021/06/09 06:54:30;;;;;;;16.55;14.57;;;32.80;99.90;;;;;;5110037;28;20280;-76
2021/06/09 06:56:59;;;;;;;16.38;14.68;;;33.10;99.90;;;;;;5113123;28;20335;-77
2021/06/09 06:59:27;;;;;;;17.77;15.80;;;33.30;99.90;;;;;;5113202;28;20715;-75
2021/06/09 07:01:55;;;;;;;18.13;16.23;;;33.40;99.90;;;;;;5105630;28;20186;-76
2021/06/09 07:04:22;;;;;;;19.75;16.30;;;33.30;99.90;;;;;;5113319;28;20223;-75
2021/06/09 07:06:50;;;;;;;19.05;17.05;;;32.30;99.90;;;;;;5111850;28;20194;-76
2021/06/09 07:09:17;;;;;;;19.98;16.75;;;32.30;99.90;;;;;;5113024;28;20647;-76
2021/06/09 07:11:45;;;;;;;17.05;15.27;;;32.60;99.90;;;;;;5113027;28;20293;-76
2021/06/09 07:14:14;;;;;;;21.65;16.02;;;32.60;99.90;;;;;;5113409;28;20294;-76
2021/06/09 07:16:43;;;;;;;21.30;16.17;;;33.10;99.90;;;;;;5113104;28;20225;-76
2021/06/09 07:19:11;;;;;;;21.05;16.80;;;33.80;99.90;;;;;;5113160;28;20189;-75
2021/06/09 07:21:39;;;;;;;20.65;15.15;;;33.70;99.90;;;;;;5112694;28;20544;-76
2021/06/09 07:24:06;;;;;;;20.08;15.90;;;33.40;99.90;;;;;;5112716;28;20225;-76
2021/06/09 07:26:36;;;;;;;19.45;15.95;;;33.30;99.90;;;;;;5113107;28;20231;-76
2021/06/09 07:29:03;;;;;;;23.08;15.23;;;33.30;99.90;;;;;;5112788;28;20614;-76
2021/06/09 07:31:33;;;;;;;26.38;17.10;;;33.30;99.90;;;;;;5112709;28;20186;-76
2021/06/09 07:33:59;;;;;;;18.48;15.50;;;33.20;99.90;;;;;;5112566;28;20643;-76
2021/06/09 07:36:31;;;;;;;24.67;18.67;;;34.00;99.90;;;;;;5111661;28;20196;-76
2021/06/09 07:39:01;;;;;;;19.80;16.88;;;33.30;99.90;;;;;;5113104;28;20220;-76
2021/06/09 07:41:32;;;;;;;26.00;17.40;;;34.20;99.90;;;;;;5112615;28;20719;-76
2021/06/09 07:44:02;;;;;;;23.67;19.60;;;34.60;99.90;;;;;;5087850;28;20249;-76
2021/06/09 07:46:32;;;;;;;22.50;19.20;;;34.50;99.90;;;;;;5092269;28;20278;-76
2021/06/09 07:49:01;;;;;;;23.08;18.75;;;34.70;99.90;;;;;;5092208;28;20206;-76
2021/06/09 07:51:28;;;;;;;30.38;20.90;;;34.70;99.90;;;;;;5109300;28;20194;-76
2021/06/09 07:53:58;;;;;;;24.27;20.33;;;34.10;99.90;;;;;;5112849;28;20194;-75
2021/06/09 07:56:30;;;;;;;27.63;20.33;;;33.90;99.90;;;;;;5094617;28;20230;-76
2021/06/09 07:58:57;;;;;;;23.70;18.98;;;34.00;99.90;;;;;;5096001;28;20294;-76
2021/06/09 08:01:24;;;;;;;27.70;19.67;;;35.10;99.90;;;;;;5095181;28;20230;-76
2021/06/09 08:03:53;;;;;;;28.90;20.65;;;35.30;99.90;;;;;;5099618;28;20190;-76
2021/06/09 08:06:20;;;;;;;24.70;19.70;;;33.40;99.90;;;;;;5116399;28;20294;-76
2021/06/09 08:08:46;;;;;;;26.95;19.33;;;34.20;99.90;;;;;;5116090;28;20296;-76
2021/06/09 08:11:14;;;;;;;22.00;19.60;;;35.00;99.90;;;;;;5116815;28;20336;-75
2021/06/09 08:13:42;;;;;;;28.25;21.58;;;35.60;99.90;;;;;;5117233;28;20190;-76
2021/06/09 08:16:12;;;;;;;23.73;19.65;;;35.90;99.90;;;;;;5104513;28;20548;-76
2021/06/09 08:18:38;;;;;;;22.38;19.17;;;34.50;99.90;;;;;;5096664;28;20229;-77
2021/06/09 08:21:10;;;;;;;23.15;18.00;;;34.70;99.90;;;;;;5100889;28;20230;-76
2021/06/09 08:23:37;;;;;;;22.60;18.92;;;35.40;99.90;;;;;;5104163;28;20191;-76
2021/06/09 08:26:04;;;;;;;24.25;18.65;;;35.30;99.90;;;;;;5102443;28;20699;-75
2021/06/09 08:28:34;;;;;;;23.17;18.08;;;34.90;99.90;;;;;;5099016;28;20759;-75
2021/06/09 08:31:01;;;;;;;25.55;18.42;;;35.70;99.90;;;;;;5100529;28;20198;-76
2021/06/09 08:33:28;;;;;;;21.80;18.73;;;36.60;99.90;;;;;;5097787;28;20190;-75
2021/06/09 08:35:55;;;;;;;24.25;17.63;;;37.50;99.90;;;;;;5108560;28;20199;-75
2021/06/09 08:38:23;;;;;;;23.33;19.05;;;37.10;98.90;;;;;;5104261;28;20669;-75
2021/06/09 08:40:50;;;;;;;22.27;17.38;;;37.10;99.90;;;;;;5112574;28;20285;-75
2021/06/09 08:43:18;;;;;;;21.70;19.15;;;38.30;99.90;;;;;;5111480;28;20641;-75
2021/06/09 08:45:45;;;;;;;19.38;17.30;;;37.90;99.20;;;;;;5116854;28;20190;-75
2021/06/09 08:48:11;;;;;;;18.75;16.20;;;38.90;97.70;;;;;;5117439;28;20292;-74
2021/06/09 08:50:38;;;;;;;17.85;15.27;;;39.50;97.90;;;;;;5118171;28;20229;-75
2021/06/09 08:53:06;;;;;;;21.00;16.23;;;39.00;96.20;;;;;;5117970;28;20220;-76
2021/06/09 08:55:35;;;;;;;24.13;17.63;;;39.60;97.60;;;;;;5117343;28;20205;-75
2021/06/09 08:58:11;;;;;;;23.85;16.90;;;40.30;96.20;;;;;;5100545;28;20242;-76
2021/06/09 09:00:39;;;;;;;25.15;17.88;;;39.10;95.50;;;;;;5089549;28;20252;-74
2021/06/09 09:03:07;;;;;;;22.23;17.45;;;38.90;97.40;;;;;;5098191;28;20703;-76
2021/06/09 09:05:35;;;;;;;20.30;18.13;;;39.60;96.80;;;;;;5103730;28;20302;-77
2021/06/09 09:08:03;;;;;;;21.80;17.50;;;39.80;94.90;;;;;;5114016;28;20198;-76
2021/06/09 09:10:29;;;;;;;22.30;16.13;;;39.10;94.90;;;;;;5116625;28;20194;-77
2021/06/09 09:12:57;;;;;;;24.52;18.63;;;39.20;96.00;;;;;;5115978;28;20281;-78
2021/06/09 09:15:24;;;;;;;18.83;16.67;;;39.40;95.60;;;;;;5108616;28;20244;-74
2021/06/09 09:17:53;;;;;;;19.50;16.08;;;39.60;95.90;;;;;;5096343;28;20213;-75
2021/06/09 09:20:26;;;;;;;21.63;16.85;;;39.70;95.80;;;;;;5106700;28;20194;-75
2021/06/09 09:22:56;;;;;;;20.63;17.23;;;40.00;95.40;;;;;;5095563;28;20270;-77
2021/06/09 09:25:23;;;;;;;23.77;15.60;;;39.30;95.20;;;;;;5105595;28;20175;-75
2021/06/09 09:27:54;;;;;;;19.30;14.98;;;38.80;95.20;;;;;;5099540;28;20673;-75
2021/06/09 09:30:23;;;;;;;17.25;15.50;;;38.60;94.80;;;;;;5106734;28;20582;-75
2021/06/09 09:33:05;;;;;;;19.58;15.60;;;38.50;95.80;;;;;;5101566;28;20259;-75
2021/06/09 09:35:33;;;;;;;18.30;14.73;;;39.10;94.20;;;;;;5110655;28;20529;-75
2021/06/09 09:38:11;;;;;;;15.68;12.45;;;39.10;95.20;;;;;;5104669;28;20210;-74
2021/06/09 09:40:37;;;;;;;17.60;13.27;;;39.20;94.30;;;;;;5102916;28;20235;-74
2021/06/09 09:43:05;;;;;;;17.35;12.75;;;39.60;94.70;;;;;;5105949;28;20290;-74
2021/06/09 09:45:34;;;;;;;13.95;11.95;;;39.90;92.80;;;;;;5104716;28;20680;-75
2021/06/09 09:48:16;;;;;;;13.38;11.93;;;39.90;93.30;;;;;;5101806;28;20195;-75
2021/06/09 09:50:45;;;;;;;13.35;12.05;;;39.10;93.40;;;;;;5098712;28;20183;-74
2021/06/09 09:53:20;;;;;;;16.77;12.05;;;38.30;93.60;;;;;;5102637;28;20232;-74
2021/06/09 09:56:05;;;;;;;13.13;11.82;;;37.90;93.80;;;;;;5105143;28;20195;-74
2021/06/09 09:58:33;;;;;;;14.07;9.68;;;38.10;94.80;;;;;;5105711;28;20244;-74
2021/06/09 10:01:16;;;;;;;13.45;11.07;;;38.80;94.10;;;;;;5103908;28;20208;-75
2021/06/09 10:03:44;;;;;;;13.38;10.32;;;39.30;93.30;;;;;;5100279;28;20320;-74
2021/06/09 10:06:30;;;;;;;14.07;10.70;;;39.80;93.40;;;;;;5100920;28;20187;-73
2021/06/09 10:08:59;;;;;;;11.75;10.05;;;39.80;92.60;;;;;;5102025;28;20282;-74
2021/06/09 10:11:27;;;;;;;14.18;10.30;;;39.20;92.20;;;;;;5101846;28;20189;-73
2021/06/09 10:13:54;;;;;;;10.60;9.60;;;39.70;93.50;;;;;;5104487;28;20240;-73
2021/06/09 10:16:24;;;;;;;10.98;9.80;;;39.90;92.40;;;;;;5110431;28;20210;-73
2021/06/09 10:18:57;;;;;;;14.75;10.48;;;39.50;91.20;;;;;;5097929;28;20214;-73
2021/06/09 10:21:24;;;;;;;12.65;10.88;;;39.20;92.10;;;;;;5103402;28;20287;-73
2021/06/09 10:23:51;;;;;;;10.73;9.60;;;39.30;92.10;;;;;;5098935;28;20327;-74
2021/06/09 10:26:18;;;;;;;11.88;9.93;;;38.80;92.00;;;;;;5101547;28;20285;-74
2021/06/09 10:29:06;;;;;;;10.90;9.90;;;38.60;92.60;;;;;;5105534;28;20581;-75
2021/06/09 10:31:36;;;;;;;14.35;9.45;;;39.00;93.10;;;;;;5105826;28;20286;-74
2021/06/09 10:34:04;;;;;;;10.43;9.30;;;39.40;93.50;;;;;;5102520;28;20329;-75
2021/06/09 10:36:34;;;;;;;12.02;10.00;;;39.70;93.60;;;;;;5100159;28;20304;-76
2021/06/09 10:39:00;;;;;;;10.88;9.75;;;40.00;92.50;;;;;;5098695;28;20220;-74
2021/06/09 10:41:29;;;;;;;11.65;10.18;;;38.50;92.70;;;;;;5110298;28;20281;-74
2021/06/09 10:43:57;;;;;;;11.18;10.07;;;38.60;92.70;;;;;;5099583;28;20205;-74
2021/06/09 10:46:25;;;;;;;14.23;11.02;;;38.50;93.40;;;;;;5102001;28;20246;-73
2021/06/09 10:48:56;;;;;;;11.43;9.98;;;38.90;93.20;;;;;;5099415;28;20277;-74
2021/06/09 10:51:23;;;;;;;13.88;12.05;;;39.20;92.40;;;;;;5109709;28;20234;-74
2021/06/09 10:53:50;;;;;;;13.75;12.32;;;39.20;91.70;;;;;;5093257;28;20233;-73
2021/06/09 10:56:18;;;;;;;13.82;12.48;;;38.70;91.60;;;;;;5101993;28;20194;-74
2021/06/09 10:58:46;;;;;;;11.95;10.70;;;38.60;92.60;;;;;;5100947;28;20272;-75
2021/06/09 11:01:13;;;;;;;14.20;12.27;;;39.10;93.60;;;;;;5097062;28;20202;-74
2021/06/09 11:03:44;;;;;;;18.70;12.38;;;39.30;92.30;;;;;;5107007;28;20237;-75
2021/06/09 11:06:11;;;;;;;13.23;11.85;;;39.30;93.00;;;;;;5106399;28;20174;-74
2021/06/09 11:08:38;;;;;;;14.00;12.48;;;38.70;93.10;;;;;;5107316;27;20723;-75
2021/06/09 11:11:18;;;;;;;13.30;12.05;;;38.60;93.00;;;;;;5096235;28;20732;-75
2021/06/09 11:13:47;;;;;;;18.45;16.02;;;39.40;93.40;;;;;;5106468;27;20213;-74
2021/06/09 11:16:17;;;;;;;17.50;15.40;;;38.20;92.20;;;;;;5111813;27;20280;-74
2021/06/09 11:18:45;;;;;;;18.08;14.23;;;37.60;92.60;;;;;;5109216;28;20259;-74
2021/06/09 11:21:15;;;;;;;18.77;16.83;;;37.70;93.20;;;;;;5112599;28;20244;-74
2021/06/09 11:23:43;;;;;;;15.52;13.93;;;38.30;92.60;;;;;;5113796;28;20175;-75
2021/06/09 11:26:25;;;;;;;20.42;16.15;;;39.20;92.40;;;;;;5103332;28;20222;-75
2021/06/09 11:28:51;;;;;;;17.38;13.30;;;37.60;92.10;;;;;;5105441;28;20369;-74
2021/06/09 11:31:26;;;;;;;15.23;13.63;;;38.20;93.60;;;;;;5109116;27;20278;-75
2021/06/09 11:33:59;;;;;;;18.48;16.52;;;38.60;93.10;;;;;;5115714;27;20242;-74
2021/06/09 11:36:40;;;;;;;21.23;16.17;;;38.30;92.10;;;;;;5119393;27;20268;-74
2021/06/09 11:39:11;;;;;;;19.88;17.50;;;38.70;92.50;;;;;;5111366;27;20721;-74
2021/06/09 11:41:42;;;;;;;20.77;18.60;;;37.90;92.00;;;;;;5115746;27;20222;-75
2021/06/09 11:44:24;;;;;;;18.58;16.65;;;36.20;91.90;;;;;;5117487;27;20293;-74
2021/06/09 11:46:50;;;;;;;19.52;14.48;;;35.30;94.40;;;;;;5116229;27;20641;-75
2021/06/09 11:49:23;;;;;;;18.23;14.05;;;35.40;95.60;;;;;;5120550;27;20227;-74
2021/06/09 11:52:00;;;;;;;17.90;16.00;;;35.90;95.00;;;;;;5113675;27;20551;-74
2021/06/09 11:54:29;;;;;;;17.85;16.10;;;36.60;94.50;;;;;;5120213;27;20268;-75
2021/06/09 11:56:58;;;;;;;17.98;15.70;;;37.30;93.90;;;;;;5113597;27;20194;-74
2021/06/09 11:59:26;;;;;;;16.13;14.48;;;38.20;93.40;;;;;;5113243;27;20237;-74
2021/06/09 12:01:55;;;;;;;19.23;13.75;;;38.80;93.30;;;;;;5104133;28;20667;-73
2021/06/09 12:04:23;;;;;;;14.65;13.05;;;38.70;92.90;;;;;;5104521;28;20221;-74
2021/06/09 12:06:57;;;;;;;16.75;15.02;;;39.20;92.90;;;;;;5106650;28;20589;-74
2021/06/09 12:09:25;;;;;;;14.13;12.77;;;38.80;92.20;;;;;;5107308;28;20182;-74
2021/06/09 12:11:54;;;;;;;17.15;12.13;;;39.20;93.00;;;;;;5104906;28;20281;-74
2021/06/09 12:14:26;;;;;;;14.70;13.20;;;39.70;93.20;;;;;;5105872;28;20276;-74
2021/06/09 12:16:55;;;;;;;15.32;13.55;;;39.50;92.30;;;;;;5099667;28;20282;-75
2021/06/09 12:19:28;;;;;;;16.88;15.27;;;39.10;91.80;;;;;;5103623;28;20257;-74
2021/06/09 12:21:57;;;;;;;15.98;14.38;;;38.40;91.50;;;;;;5105677;28;20206;-75
2021/06/09 12:24:25;;;;;;;16.17;14.40;;;38.30;92.10;;;;;;5105316;28;20274;-73
2021/06/09 12:26:57;;;;;;;15.38;13.18;;;38.30;91.40;;;;;;5105301;28;20186;-74
2021/06/09 12:29:27;;;;;;;15.38;13.77;;;38.30;92.90;;;;;;5107573;28;20335;-75
2021/06/09 12:31:55;;;;;;;16.83;13.93;;;38.60;92.70;;;;;;5099314;28;20331;-75
2021/06/09 12:34:28;;;;;;;17.88;16.08;;;38.20;93.00;;;;;;5110729;28;20202;-75
2021/06/09 12:36:58;;;;;;;20.10;13.63;;;36.80;92.00;;;;;;5105957;28;20252;-75